sensor_id;sensor_type;location;lat;lon;timestamp;pressure;altitude;pressure_sealevel;temperature;humidity
16613;BME280;8419;52.358;9.752;2023-01-31T00:00:40;101218.00;;;14.11;41.09
16613;BME280;8419;52.358;9.752;2023-01-31T00:03:25;101223.00;;;14.11;41.14
16613;BME280;8419;52.358;9.752;2023-01-31T00:06:17;101223.00;;;14.01;41.42
16613;BME280;8419;52.358;9.752;2023-01-31T00:09:05;101229.00;;;14.11;41.28
16613;BME280;8419;52.358;9.752;2023-01-31T00:11:50;101228.00;;;14.11;41.25
16613;BME280;8419;52.358;9.752;2023-01-31T00:14:37;101221.00;;;14.04;41.38
16613;BME280;8419;52.358;9.752;2023-01-31T00:17:25;101237.00;;;14.02;41.48
16613;BME280;8419;52.358;9.752;2023-01-31T00:20:12;101246.00;;;14.10;41.56
16613;BME280;8419;52.358;9.752;2023-01-31T00:23:00;101256.00;;;14.24;41.32
16613;BME280;8419;52.358;9.752;2023-01-31T00:25:46;101244.00;;;14.30;41.30
16613;BME280;8419;52.358;9.752;2023-01-31T00:28:31;101251.00;;;14.31;41.36
16613;BME280;8419;52.358;9.752;2023-01-31T00:31:18;101246.00;;;14.42;41.17
16613;BME280;8419;52.358;9.752;2023-01-31T00:34:04;101246.00;;;14.51;40.97
16613;BME280;8419;52.358;9.752;2023-01-31T00:36:50;101244.00;;;14.49;40.89
16613;BME280;8419;52.358;9.752;2023-01-31T00:39:36;101247.00;;;14.50;40.93
16613;BME280;8419;52.358;9.752;2023-01-31T00:42:22;101245.00;;;14.55;40.85
16613;BME280;8419;52.358;9.752;2023-01-31T00:45:09;101242.00;;;14.57;40.76
16613;BME280;8419;52.358;9.752;2023-01-31T00:47:55;101244.00;;;14.66;40.63
16613;BME280;8419;52.358;9.752;2023-01-31T00:50:40;101250.00;;;14.62;40.70
16613;BME280;8419;52.358;9.752;2023-01-31T00:53:26;101253.00;;;14.70;40.44
16613;BME280;8419;52.358;9.752;2023-01-31T00:56:14;101270.00;;;14.63;40.76
16613;BME280;8419;52.358;9.752;2023-01-31T00:59:00;101258.00;;;14.63;40.70
16613;BME280;8419;52.358;9.752;2023-01-31T01:01:48;101274.00;;;14.46;40.83
16613;BME280;8419;52.358;9.752;2023-01-31T01:04:36;101270.00;;;14.15;41.50
16613;BME280;8419;52.358;9.752;2023-01-31T01:07:21;101258.00;;;14.11;41.68
16613;BME280;8419;52.358;9.752;2023-01-31T01:10:09;101247.00;;;13.97;42.08
16613;BME280;8419;52.358;9.752;2023-01-31T01:12:54;101267.00;;;14.07;42.02
16613;BME280;8419;52.358;9.752;2023-01-31T01:15:40;101268.00;;;14.01;42.18
16613;BME280;8419;52.358;9.752;2023-01-31T01:18:25;101281.00;;;13.95;42.31
16613;BME280;8419;52.358;9.752;2023-01-31T01:21:12;101277.00;;;13.93;42.42
16613;BME280;8419;52.358;9.752;2023-01-31T01:24:00;101297.00;;;13.86;42.52
16613;BME280;8419;52.358;9.752;2023-01-31T01:26:46;101284.00;;;13.79;42.73
16613;BME280;8419;52.358;9.752;2023-01-31T01:29:32;101291.00;;;13.76;42.82
16613;BME280;8419;52.358;9.752;2023-01-31T01:32:18;101296.00;;;13.70;42.91
16613;BME280;8419;52.358;9.752;2023-01-31T01:35:05;101303.00;;;13.70;42.90
16613;BME280;8419;52.358;9.752;2023-01-31T01:37:50;101309.00;;;13.63;43.01
16613;BME280;8419;52.358;9.752;2023-01-31T01:40:37;101306.00;;;13.60;43.07
16613;BME280;8419;52.358;9.752;2023-01-31T01:43:39;101317.00;;;13.60;43.13
16613;BME280;8419;52.358;9.752;2023-01-31T01:46:27;101321.00;;;13.60;43.17
16613;BME280;8419;52.358;9.752;2023-01-31T01:49:21;101319.00;;;13.56;43.23
16613;BME280;8419;52.358;9.752;2023-01-31T01:52:09;101315.00;;;13.56;43.27
16613;BME280;8419;52.358;9.752;2023-01-31T01:54:59;101324.00;;;13.58;43.25
16613;BME280;8419;52.358;9.752;2023-01-31T01:57:48;101324.00;;;13.58;43.28
16613;BME280;8419;52.358;9.752;2023-01-31T02:00:35;101328.00;;;13.54;43.46
16613;BME280;8419;52.358;9.752;2023-01-31T02:03:22;101336.00;;;13.60;43.39
16613;BME280;8419;52.358;9.752;2023-01-31T02:06:08;101342.00;;;13.64;43.32
16613;BME280;8419;52.358;9.752;2023-01-31T02:08:54;101342.00;;;13.56;43.59
16613;BME280;8419;52.358;9.752;2023-01-31T02:11:39;101339.00;;;13.71;43.44
16613;BME280;8419;52.358;9.752;2023-01-31T02:14:26;101339.00;;;13.79;43.43
16613;BME280;8419;52.358;9.752;2023-01-31T02:17:13;101345.00;;;13.91;43.37
16613;BME280;8419;52.358;9.752;2023-01-31T02:20:09;101343.00;;;14.02;43.26
16613;BME280;8419;52.358;9.752;2023-01-31T02:23:13;101348.00;;;14.10;43.23
16613;BME280;8419;52.358;9.752;2023-01-31T02:29:35;101331.00;;;14.14;43.20
16613;BME280;8419;52.358;9.752;2023-01-31T02:32:43;101335.00;;;14.08;43.27
16613;BME280;8419;52.358;9.752;2023-01-31T02:35:44;101335.00;;;14.02;43.33
16613;BME280;8419;52.358;9.752;2023-01-31T02:38:42;101350.00;;;13.95;43.56
16613;BME280;8419;52.358;9.752;2023-01-31T02:41:36;101357.00;;;13.99;43.45
16613;BME280;8419;52.358;9.752;2023-01-31T02:44:29;101351.00;;;13.93;43.58
16613;BME280;8419;52.358;9.752;2023-01-31T02:47:51;101357.00;;;13.99;43.53
16613;BME280;8419;52.358;9.752;2023-01-31T02:50:44;101345.00;;;14.00;43.52
16613;BME280;8419;52.358;9.752;2023-01-31T02:53:34;101349.00;;;13.96;43.64
16613;BME280;8419;52.358;9.752;2023-01-31T02:56:23;101349.00;;;14.04;43.57
16613;BME280;8419;52.358;9.752;2023-01-31T02:59:17;101353.00;;;14.13;43.42
16613;BME280;8419;52.358;9.752;2023-01-31T03:02:06;101352.00;;;14.13;43.55
16613;BME280;8419;52.358;9.752;2023-01-31T03:04:53;101363.00;;;14.06;43.67
16613;BME280;8419;52.358;9.752;2023-01-31T03:07:39;101345.00;;;14.17;43.53
16613;BME280;8419;52.358;9.752;2023-01-31T03:10:46;101358.00;;;14.22;43.38
16613;BME280;8419;52.358;9.752;2023-01-31T03:13:46;101344.00;;;14.21;43.38
16613;BME280;8419;52.358;9.752;2023-01-31T03:16:44;101348.00;;;14.11;43.56
16613;BME280;8419;52.358;9.752;2023-01-31T03:20:01;101354.00;;;14.10;43.57
16613;BME280;8419;52.358;9.752;2023-01-31T03:22:50;101337.00;;;14.12;43.48
16613;BME280;8419;52.358;9.752;2023-01-31T03:25:38;101344.00;;;14.07;43.50
16613;BME280;8419;52.358;9.752;2023-01-31T03:28:28;101341.00;;;14.07;43.34
16613;BME280;8419;52.358;9.752;2023-01-31T03:31:17;101340.00;;;14.08;43.29
16613;BME280;8419;52.358;9.752;2023-01-31T03:34:06;101338.00;;;14.11;43.13
16613;BME280;8419;52.358;9.752;2023-01-31T03:36:58;101315.00;;;14.15;42.78
16613;BME280;8419;52.358;9.752;2023-01-31T03:39:54;101330.00;;;14.04;42.88
16613;BME280;8419;52.358;9.752;2023-01-31T03:42:49;101323.00;;;13.92;42.97
16613;BME280;8419;52.358;9.752;2023-01-31T03:45:41;101311.00;;;13.92;42.88
16613;BME280;8419;52.358;9.752;2023-01-31T03:48:31;101314.00;;;13.87;43.04
16613;BME280;8419;52.358;9.752;2023-01-31T03:51:20;101308.00;;;13.79;43.08
16613;BME280;8419;52.358;9.752;2023-01-31T03:54:10;101311.00;;;13.88;42.93
16613;BME280;8419;52.358;9.752;2023-01-31T03:57:01;101307.00;;;13.95;42.71
16613;BME280;8419;52.358;9.752;2023-01-31T03:59:52;101309.00;;;13.87;42.75
16613;BME280;8419;52.358;9.752;2023-01-31T04:02:39;101314.00;;;13.86;42.72
16613;BME280;8419;52.358;9.752;2023-01-31T04:05:25;101307.00;;;13.89;42.65
16613;BME280;8419;52.358;9.752;2023-01-31T04:08:15;101305.00;;;13.83;42.70
16613;BME280;8419;52.358;9.752;2023-01-31T04:11:04;101314.00;;;13.75;42.88
16613;BME280;8419;52.358;9.752;2023-01-31T04:13:50;101302.00;;;13.76;42.78
16613;BME280;8419;52.358;9.752;2023-01-31T04:16:35;101307.00;;;13.77;42.74
16613;BME280;8419;52.358;9.752;2023-01-31T04:19:22;101318.00;;;13.86;42.59
16613;BME280;8419;52.358;9.752;2023-01-31T04:22:07;101313.00;;;13.76;42.76
16613;BME280;8419;52.358;9.752;2023-01-31T04:24:53;101317.00;;;13.80;42.65
16613;BME280;8419;52.358;9.752;2023-01-31T04:27:39;101311.00;;;13.78;42.69
16613;BME280;8419;52.358;9.752;2023-01-31T04:30:24;101326.00;;;13.84;42.54
16613;BME280;8419;52.358;9.752;2023-01-31T04:33:10;101322.00;;;13.85;42.47
16613;BME280;8419;52.358;9.752;2023-01-31T04:35:55;101319.00;;;13.78;42.62
16613;BME280;8419;52.358;9.752;2023-01-31T04:38:40;101326.00;;;13.95;42.48
16613;BME280;8419;52.358;9.752;2023-01-31T04:41:26;101329.00;;;14.08;42.41
16613;BME280;8419;52.358;9.752;2023-01-31T04:44:11;101318.00;;;14.15;42.31
16613;BME280;8419;52.358;9.752;2023-01-31T04:46:57;101315.00;;;14.09;42.53
16613;BME280;8419;52.358;9.752;2023-01-31T04:49:42;101315.00;;;14.12;42.37
16613;BME280;8419;52.358;9.752;2023-01-31T04:52:29;101315.00;;;14.12;42.39
16613;BME280;8419;52.358;9.752;2023-01-31T04:55:15;101328.00;;;14.10;42.34
16613;BME280;8419;52.358;9.752;2023-01-31T04:58:00;101325.00;;;14.10;42.28
16613;BME280;8419;52.358;9.752;2023-01-31T05:00:46;101328.00;;;14.07;42.18
16613;BME280;8419;52.358;9.752;2023-01-31T05:03:32;101332.00;;;14.16;42.11
16613;BME280;8419;52.358;9.752;2023-01-31T05:06:17;101324.00;;;14.14;42.09
16613;BME280;8419;52.358;9.752;2023-01-31T05:09:03;101324.00;;;14.14;42.06
16613;BME280;8419;52.358;9.752;2023-01-31T05:11:48;101330.00;;;14.19;41.88
16613;BME280;8419;52.358;9.752;2023-01-31T05:14:34;101329.00;;;14.15;42.07
16613;BME280;8419;52.358;9.752;2023-01-31T05:17:20;101330.00;;;14.26;41.84
16613;BME280;8419;52.358;9.752;2023-01-31T05:20:13;101319.00;;;14.30;41.71
16613;BME280;8419;52.358;9.752;2023-01-31T05:22:59;101322.00;;;14.35;41.66
16613;BME280;8419;52.358;9.752;2023-01-31T05:25:47;101321.00;;;14.47;41.28
16613;BME280;8419;52.358;9.752;2023-01-31T05:28:33;101325.00;;;14.49;41.26
16613;BME280;8419;52.358;9.752;2023-01-31T05:31:18;101322.00;;;14.40;41.32
16613;BME280;8419;52.358;9.752;2023-01-31T05:34:04;101304.00;;;14.51;41.24
16613;BME280;8419;52.358;9.752;2023-01-31T05:36:50;101301.00;;;14.52;41.33
16613;BME280;8419;52.358;9.752;2023-01-31T05:39:35;101316.00;;;14.56;41.23
16613;BME280;8419;52.358;9.752;2023-01-31T05:42:21;101315.00;;;14.54;41.07
16613;BME280;8419;52.358;9.752;2023-01-31T05:45:10;101310.00;;;14.51;41.02
16613;BME280;8419;52.358;9.752;2023-01-31T05:47:56;101314.00;;;14.52;41.20
16613;BME280;8419;52.358;9.752;2023-01-31T05:50:42;101312.00;;;14.56;41.17
16613;BME280;8419;52.358;9.752;2023-01-31T05:53:28;101310.00;;;14.63;41.04
16613;BME280;8419;52.358;9.752;2023-01-31T05:56:13;101316.00;;;14.62;41.15
16613;BME280;8419;52.358;9.752;2023-01-31T05:58:58;101311.00;;;14.69;40.89
16613;BME280;8419;52.358;9.752;2023-01-31T06:01:47;101312.00;;;14.54;41.12
16613;BME280;8419;52.358;9.752;2023-01-31T06:04:32;101304.00;;;14.67;40.92
16613;BME280;8419;52.358;9.752;2023-01-31T06:07:17;101294.00;;;14.72;40.86
16613;BME280;8419;52.358;9.752;2023-01-31T06:10:05;101307.00;;;14.73;40.91
16613;BME280;8419;52.358;9.752;2023-01-31T06:12:51;101294.00;;;14.69;40.92
16613;BME280;8419;52.358;9.752;2023-01-31T06:15:36;101299.00;;;14.69;40.86
16613;BME280;8419;52.358;9.752;2023-01-31T06:18:26;101296.00;;;14.70;40.90
16613;BME280;8419;52.358;9.752;2023-01-31T06:21:11;101289.00;;;14.72;40.89
16613;BME280;8419;52.358;9.752;2023-01-31T06:23:57;101297.00;;;14.74;40.92
16613;BME280;8419;52.358;9.752;2023-01-31T06:26:42;101292.00;;;14.74;41.00
16613;BME280;8419;52.358;9.752;2023-01-31T06:29:28;101287.00;;;14.77;40.99
16613;BME280;8419;52.358;9.752;2023-01-31T06:32:14;101283.00;;;14.83;40.86
16613;BME280;8419;52.358;9.752;2023-01-31T06:34:59;101283.00;;;14.84;40.79
16613;BME280;8419;52.358;9.752;2023-01-31T06:37:44;101284.00;;;14.86;40.71
16613;BME280;8419;52.358;9.752;2023-01-31T06:40:30;101283.00;;;14.88;40.72
16613;BME280;8419;52.358;9.752;2023-01-31T06:43:15;101286.00;;;14.89;40.65
16613;BME280;8419;52.358;9.752;2023-01-31T06:46:01;101278.00;;;15.02;40.50
16613;BME280;8419;52.358;9.752;2023-01-31T06:48:46;101275.00;;;14.97;40.40
16613;BME280;8419;52.358;9.752;2023-01-31T06:51:33;101266.00;;;14.90;40.55
16613;BME280;8419;52.358;9.752;2023-01-31T06:54:18;101270.00;;;14.92;40.43
16613;BME280;8419;52.358;9.752;2023-01-31T06:57:04;101258.00;;;14.96;40.19
16613;BME280;8419;52.358;9.752;2023-01-31T06:59:50;101253.00;;;14.95;40.20
16613;BME280;8419;52.358;9.752;2023-01-31T07:02:35;101263.00;;;14.97;40.23
16613;BME280;8419;52.358;9.752;2023-01-31T07:05:21;101257.00;;;15.04;40.29
16613;BME280;8419;52.358;9.752;2023-01-31T07:08:07;101248.00;;;15.08;40.31
16613;BME280;8419;52.358;9.752;2023-01-31T07:10:52;101241.00;;;15.10;40.33
16613;BME280;8419;52.358;9.752;2023-01-31T07:13:37;101244.00;;;15.15;40.18
16613;BME280;8419;52.358;9.752;2023-01-31T07:16:23;101254.00;;;15.11;40.27
16613;BME280;8419;52.358;9.752;2023-01-31T07:19:10;101237.00;;;15.14;40.30
16613;BME280;8419;52.358;9.752;2023-01-31T07:21:55;101217.00;;;15.16;40.31
16613;BME280;8419;52.358;9.752;2023-01-31T07:24:41;101211.00;;;15.17;40.35
16613;BME280;8419;52.358;9.752;2023-01-31T07:27:27;101209.00;;;15.21;40.30
16613;BME280;8419;52.358;9.752;2023-01-31T07:30:13;101206.00;;;15.30;40.13
16613;BME280;8419;52.358;9.752;2023-01-31T07:32:59;101199.00;;;15.32;40.02
16613;BME280;8419;52.358;9.752;2023-01-31T07:35:45;101192.00;;;15.28;40.08
16613;BME280;8419;52.358;9.752;2023-01-31T07:38:30;101196.00;;;15.27;40.17
16613;BME280;8419;52.358;9.752;2023-01-31T07:41:15;101191.00;;;15.27;40.23
16613;BME280;8419;52.358;9.752;2023-01-31T07:44:01;101185.00;;;15.32;40.17
16613;BME280;8419;52.358;9.752;2023-01-31T07:46:46;101181.00;;;15.40;40.13
16613;BME280;8419;52.358;9.752;2023-01-31T07:49:32;101169.00;;;15.43;40.01
16613;BME280;8419;52.358;9.752;2023-01-31T07:52:17;101170.00;;;15.44;40.02
16613;BME280;8419;52.358;9.752;2023-01-31T07:55:03;101161.00;;;15.45;40.04
16613;BME280;8419;52.358;9.752;2023-01-31T07:57:49;101171.00;;;15.59;39.75
16613;BME280;8419;52.358;9.752;2023-01-31T08:00:34;101173.00;;;15.56;39.72
16613;BME280;8419;52.358;9.752;2023-01-31T08:03:38;101169.00;;;15.62;39.67
16613;BME280;8419;52.358;9.752;2023-01-31T08:06:27;101164.00;;;15.68;39.60
16613;BME280;8419;52.358;9.752;2023-01-31T08:09:13;101167.00;;;15.71;39.39
16613;BME280;8419;52.358;9.752;2023-01-31T08:11:59;101143.00;;;15.76;39.37
16613;BME280;8419;52.358;9.752;2023-01-31T08:14:44;101146.00;;;15.86;39.19
16613;BME280;8419;52.358;9.752;2023-01-31T08:17:31;101153.00;;;15.89;39.02
16613;BME280;8419;52.358;9.752;2023-01-31T08:20:17;101135.00;;;15.86;38.96
16613;BME280;8419;52.358;9.752;2023-01-31T08:23:03;101123.00;;;15.97;38.79
16613;BME280;8419;52.358;9.752;2023-01-31T08:25:49;101121.00;;;16.09;38.71
16613;BME280;8419;52.358;9.752;2023-01-31T08:28:36;101118.00;;;16.23;38.60
16613;BME280;8419;52.358;9.752;2023-01-31T08:31:24;101127.00;;;16.25;38.50
16613;BME280;8419;52.358;9.752;2023-01-31T08:34:09;101118.00;;;16.16;38.56
16613;BME280;8419;52.358;9.752;2023-01-31T08:36:55;101119.00;;;16.17;38.54
16613;BME280;8419;52.358;9.752;2023-01-31T08:39:40;101117.00;;;16.19;38.57
16613;BME280;8419;52.358;9.752;2023-01-31T08:42:26;101117.00;;;16.32;38.54
16613;BME280;8419;52.358;9.752;2023-01-31T08:45:14;101109.00;;;16.35;38.37
16613;BME280;8419;52.358;9.752;2023-01-31T08:48:00;101111.00;;;16.35;38.15
16613;BME280;8419;52.358;9.752;2023-01-31T08:50:46;101088.00;;;16.43;37.86
16613;BME280;8419;52.358;9.752;2023-01-31T08:53:31;101085.00;;;16.56;37.86
16613;BME280;8419;52.358;9.752;2023-01-31T08:56:17;101071.00;;;16.52;37.86
16613;BME280;8419;52.358;9.752;2023-01-31T08:59:05;101083.00;;;16.63;37.53
16613;BME280;8419;52.358;9.752;2023-01-31T09:01:50;101075.00;;;16.64;37.58
16613;BME280;8419;52.358;9.752;2023-01-31T09:04:36;101072.00;;;16.64;37.53
16613;BME280;8419;52.358;9.752;2023-01-31T09:07:23;101081.00;;;16.71;37.17
16613;BME280;8419;52.358;9.752;2023-01-31T09:10:10;101070.00;;;16.67;37.14
16613;BME280;8419;52.358;9.752;2023-01-31T09:12:56;101063.00;;;16.70;37.19
16613;BME280;8419;52.358;9.752;2023-01-31T09:15:43;101054.00;;;16.67;36.96
16613;BME280;8419;52.358;9.752;2023-01-31T09:18:28;101063.00;;;16.63;36.90
16613;BME280;8419;52.358;9.752;2023-01-31T09:21:16;101058.00;;;16.60;36.95
16613;BME280;8419;52.358;9.752;2023-01-31T09:24:03;101072.00;;;16.62;36.89
16613;BME280;8419;52.358;9.752;2023-01-31T09:26:49;101076.00;;;16.60;36.86
16613;BME280;8419;52.358;9.752;2023-01-31T09:29:34;101069.00;;;16.60;36.86
16613;BME280;8419;52.358;9.752;2023-01-31T09:32:22;101061.00;;;16.52;36.90
16613;BME280;8419;52.358;9.752;2023-01-31T09:35:08;101074.00;;;16.49;36.98
16613;BME280;8419;52.358;9.752;2023-01-31T09:37:54;101054.00;;;16.39;37.07
16613;BME280;8419;52.358;9.752;2023-01-31T09:40:39;101063.00;;;16.15;37.49
16613;BME280;8419;52.358;9.752;2023-01-31T09:43:29;101072.00;;;15.99;37.93
16613;BME280;8419;52.358;9.752;2023-01-31T09:46:19;101039.00;;;15.86;38.29
16613;BME280;8419;52.358;9.752;2023-01-31T09:49:08;101047.00;;;15.81;38.45
16613;BME280;8419;52.358;9.752;2023-01-31T09:51:58;101054.00;;;15.75;38.75
16613;BME280;8419;52.358;9.752;2023-01-31T09:54:45;101047.00;;;15.65;39.07
16613;BME280;8419;52.358;9.752;2023-01-31T09:57:40;101017.00;;;15.60;39.32
16613;BME280;8419;52.358;9.752;2023-01-31T10:00:30;101015.00;;;15.57;39.55
16613;BME280;8419;52.358;9.752;2023-01-31T10:03:26;101013.00;;;15.47;39.87
16613;BME280;8419;52.358;9.752;2023-01-31T10:06:20;101018.00;;;15.46;40.03
16613;BME280;8419;52.358;9.752;2023-01-31T10:09:10;101019.00;;;15.36;40.30
16613;BME280;8419;52.358;9.752;2023-01-31T10:12:02;101021.00;;;15.56;40.03
16613;BME280;8419;52.358;9.752;2023-01-31T10:14:56;100999.00;;;15.55;40.04
16613;BME280;8419;52.358;9.752;2023-01-31T10:17:46;101006.00;;;15.65;39.92
16613;BME280;8419;52.358;9.752;2023-01-31T10:20:36;101001.00;;;15.69;39.85
16613;BME280;8419;52.358;9.752;2023-01-31T10:23:26;101010.00;;;15.75;39.83
16613;BME280;8419;52.358;9.752;2023-01-31T10:26:19;100998.00;;;15.77;39.75
16613;BME280;8419;52.358;9.752;2023-01-31T10:29:12;100982.00;;;15.90;39.52
16613;BME280;8419;52.358;9.752;2023-01-31T10:32:02;100968.00;;;15.88;39.59
16613;BME280;8419;52.358;9.752;2023-01-31T10:34:52;100971.00;;;15.97;39.47
16613;BME280;8419;52.358;9.752;2023-01-31T10:37:42;100983.00;;;15.97;39.43
16613;BME280;8419;52.358;9.752;2023-01-31T10:40:35;100965.00;;;15.86;39.69
16613;BME280;8419;52.358;9.752;2023-01-31T10:43:30;100964.00;;;15.95;39.70
16613;BME280;8419;52.358;9.752;2023-01-31T10:46:17;100954.00;;;16.11;39.41
16613;BME280;8419;52.358;9.752;2023-01-31T10:49:03;100953.00;;;16.17;39.30
16613;BME280;8419;52.358;9.752;2023-01-31T10:52:02;100946.00;;;16.16;39.21
16613;BME280;8419;52.358;9.752;2023-01-31T10:55:00;100930.00;;;16.25;39.12
16613;BME280;8419;52.358;9.752;2023-01-31T10:57:48;100923.00;;;16.31;39.05
16613;BME280;8419;52.358;9.752;2023-01-31T11:00:34;100909.00;;;16.29;39.10
16613;BME280;8419;52.358;9.752;2023-01-31T11:03:20;100920.00;;;16.19;39.20
16613;BME280;8419;52.358;9.752;2023-01-31T11:06:06;100906.00;;;16.29;38.88
16613;BME280;8419;52.358;9.752;2023-01-31T11:08:53;100907.00;;;16.28;38.99
16613;BME280;8419;52.358;9.752;2023-01-31T11:11:53;100899.00;;;16.27;39.08
16613;BME280;8419;52.358;9.752;2023-01-31T11:14:39;100896.00;;;16.43;38.91
16613;BME280;8419;52.358;9.752;2023-01-31T11:17:24;100916.00;;;16.59;38.69
16613;BME280;8419;52.358;9.752;2023-01-31T11:20:21;100895.00;;;16.62;38.57
16613;BME280;8419;52.358;9.752;2023-01-31T11:23:13;100887.00;;;16.60;38.53
16613;BME280;8419;52.358;9.752;2023-01-31T11:26:01;100883.00;;;16.43;38.88
16613;BME280;8419;52.358;9.752;2023-01-31T11:28:50;100889.00;;;16.58;38.63
16613;BME280;8419;52.358;9.752;2023-01-31T11:31:40;100880.00;;;16.68;38.42
16613;BME280;8419;52.358;9.752;2023-01-31T11:34:28;100887.00;;;16.69;38.42
16613;BME280;8419;52.358;9.752;2023-01-31T11:37:16;100884.00;;;16.69;38.39
16613;BME280;8419;52.358;9.752;2023-01-31T11:40:18;100868.00;;;16.69;38.33
16613;BME280;8419;52.358;9.752;2023-01-31T11:43:23;100876.00;;;16.71;38.43
16613;BME280;8419;52.358;9.752;2023-01-31T11:46:09;100865.00;;;16.72;38.31
16613;BME280;8419;52.358;9.752;2023-01-31T11:48:55;100863.00;;;16.63;38.46
16613;BME280;8419;52.358;9.752;2023-01-31T11:51:41;100869.00;;;16.55;38.57
16613;BME280;8419;52.358;9.752;2023-01-31T11:54:31;100848.00;;;16.54;38.58
16613;BME280;8419;52.358;9.752;2023-01-31T11:57:22;100846.00;;;16.51;38.62
16613;BME280;8419;52.358;9.752;2023-01-31T12:00:20;100837.00;;;16.24;39.13
16613;BME280;8419;52.358;9.752;2023-01-31T12:03:11;100830.00;;;16.19;39.34
16613;BME280;8419;52.358;9.752;2023-01-31T12:06:04;100830.00;;;16.10;39.63
16613;BME280;8419;52.358;9.752;2023-01-31T12:08:53;100829.00;;;16.14;39.60
16613;BME280;8419;52.358;9.752;2023-01-31T12:11:50;100831.00;;;16.01;39.83
16613;BME280;8419;52.358;9.752;2023-01-31T12:14:38;100811.00;;;16.12;39.74
16613;BME280;8419;52.358;9.752;2023-01-31T12:17:24;100841.00;;;16.26;39.62
16613;BME280;8419;52.358;9.752;2023-01-31T12:20:20;100818.00;;;16.48;39.34
16613;BME280;8419;52.358;9.752;2023-01-31T12:23:15;100807.00;;;16.52;39.25
16613;BME280;8419;52.358;9.752;2023-01-31T12:26:10;100798.00;;;16.42;39.41
16613;BME280;8419;52.358;9.752;2023-01-31T12:29:32;100801.00;;;16.56;39.14
16613;BME280;8419;52.358;9.752;2023-01-31T12:32:31;100789.00;;;16.62;39.03
16613;BME280;8419;52.358;9.752;2023-01-31T12:35:33;100812.00;;;16.59;39.13
16613;BME280;8419;52.358;9.752;2023-01-31T12:38:40;100816.00;;;16.51;39.22
16613;BME280;8419;52.358;9.752;2023-01-31T12:41:34;100778.00;;;16.52;39.24
16613;BME280;8419;52.358;9.752;2023-01-31T12:44:36;100792.00;;;16.54;39.16
16613;BME280;8419;52.358;9.752;2023-01-31T12:47:46;100792.00;;;16.57;39.27
16613;BME280;8419;52.358;9.752;2023-01-31T12:50:41;100798.00;;;16.58;39.28
16613;BME280;8419;52.358;9.752;2023-01-31T12:53:39;100801.00;;;16.63;39.15
16613;BME280;8419;52.358;9.752;2023-01-31T12:56:55;100815.00;;;16.58;39.30
16613;BME280;8419;52.358;9.752;2023-01-31T12:59:49;100806.00;;;16.56;39.32
16613;BME280;8419;52.358;9.752;2023-01-31T13:02:41;100812.00;;;16.39;39.62
16613;BME280;8419;52.358;9.752;2023-01-31T13:05:33;100800.00;;;16.23;39.99
16613;BME280;8419;52.358;9.752;2023-01-31T13:08:25;100809.00;;;16.33;39.85
16613;BME280;8419;52.358;9.752;2023-01-31T13:11:16;100805.00;;;16.14;40.27
16613;BME280;8419;52.358;9.752;2023-01-31T13:14:05;100811.00;;;16.13;40.39
16613;BME280;8419;52.358;9.752;2023-01-31T13:16:57;100818.00;;;15.97;40.73
16613;BME280;8419;52.358;9.752;2023-01-31T13:19:48;100811.00;;;16.05;40.66
16613;BME280;8419;52.358;9.752;2023-01-31T13:22:40;100806.00;;;16.02;40.77
16613;BME280;8419;52.358;9.752;2023-01-31T13:25:36;100815.00;;;16.06;40.84
16613;BME280;8419;52.358;9.752;2023-01-31T13:28:24;100802.00;;;16.06;40.97
16613;BME280;8419;52.358;9.752;2023-01-31T13:31:16;100795.00;;;15.80;41.63
16613;BME280;8419;52.358;9.752;2023-01-31T13:34:11;100780.00;;;15.88;41.70
16613;BME280;8419;52.358;9.752;2023-01-31T13:37:01;100795.00;;;15.96;41.62
16613;BME280;8419;52.358;9.752;2023-01-31T13:39:49;100803.00;;;15.94;41.71
16613;BME280;8419;52.358;9.752;2023-01-31T13:42:36;100792.00;;;15.91;42.04
16613;BME280;8419;52.358;9.752;2023-01-31T13:45:25;100789.00;;;15.92;42.08
16613;BME280;8419;52.358;9.752;2023-01-31T13:48:21;100791.00;;;15.84;42.44
16613;BME280;8419;52.358;9.752;2023-01-31T13:51:12;100799.00;;;15.92;42.36
16613;BME280;8419;52.358;9.752;2023-01-31T13:54:04;100782.00;;;16.07;42.21
16613;BME280;8419;52.358;9.752;2023-01-31T13:56:54;100785.00;;;16.13;42.20
16613;BME280;8419;52.358;9.752;2023-01-31T13:59:40;100778.00;;;16.06;42.36
16613;BME280;8419;52.358;9.752;2023-01-31T14:02:36;100758.00;;;16.09;42.44
16613;BME280;8419;52.358;9.752;2023-01-31T14:05:51;100758.00;;;16.09;42.45
16613;BME280;8419;52.358;9.752;2023-01-31T14:08:56;100747.00;;;16.27;42.29
16613;BME280;8419;52.358;9.752;2023-01-31T14:11:43;100760.00;;;16.43;41.95
16613;BME280;8419;52.358;9.752;2023-01-31T14:14:37;100760.00;;;16.35;42.04
16613;BME280;8419;52.358;9.752;2023-01-31T14:17:56;100751.00;;;16.47;41.86
16613;BME280;8419;52.358;9.752;2023-01-31T14:20:42;100760.00;;;16.52;41.83
16613;BME280;8419;52.358;9.752;2023-01-31T14:23:30;100767.00;;;16.55;41.82
16613;BME280;8419;52.358;9.752;2023-01-31T14:26:52;100748.00;;;16.53;41.78
16613;BME280;8419;52.358;9.752;2023-01-31T14:29:41;100756.00;;;16.71;41.58
16613;BME280;8419;52.358;9.752;2023-01-31T14:32:32;100752.00;;;16.70;41.47
16613;BME280;8419;52.358;9.752;2023-01-31T14:35:37;100750.00;;;16.80;41.31
16613;BME280;8419;52.358;9.752;2023-01-31T14:38:34;100732.00;;;16.91;41.13
16613;BME280;8419;52.358;9.752;2023-01-31T14:41:34;100742.00;;;17.04;40.86
16613;BME280;8419;52.358;9.752;2023-01-31T14:44:32;100725.00;;;16.83;41.22
16613;BME280;8419;52.358;9.752;2023-01-31T14:47:34;100738.00;;;16.96;40.92
16613;BME280;8419;52.358;9.752;2023-01-31T14:50:34;100724.00;;;16.96;40.95
16613;BME280;8419;52.358;9.752;2023-01-31T14:53:45;100723.00;;;16.99;40.83
16613;BME280;8419;52.358;9.752;2023-01-31T14:56:49;100747.00;;;17.02;40.82
16613;BME280;8419;52.358;9.752;2023-01-31T14:59:43;100748.00;;;17.12;40.72
16613;BME280;8419;52.358;9.752;2023-01-31T15:02:46;100740.00;;;17.15;40.64